createdAt,value
2023-10-11T00:01:53.624Z,12.71
2023-10-11T00:04:41.557Z,12.76
2023-10-11T00:07:28.163Z,12.73
2023-10-11T00:10:24.194Z,12.70
2023-10-11T00:13:12.790Z,12.68
2023-10-11T00:15:58.771Z,12.71
2023-10-11T00:18:46.360Z,12.72
2023-10-11T00:21:42.921Z,12.74
2023-10-11T00:24:30.587Z,12.76
2023-10-11T00:27:17.687Z,12.79
2023-10-11T00:30:04.837Z,12.79
2023-10-11T00:32:53.788Z,12.79
2023-10-11T00:35:49.430Z,12.76
2023-10-11T00:38:48.096Z,12.77
2023-10-11T00:41:42.126Z,12.76
2023-10-11T00:44:34.424Z,12.80
2023-10-11T00:47:21.723Z,12.78
2023-10-11T00:50:15.642Z,12.79
2023-10-11T00:53:02.132Z,12.77
2023-10-11T00:55:48.473Z,12.78
2023-10-11T00:58:35.382Z,12.75
2023-10-11T01:01:23.801Z,12.74
2023-10-11T01:04:14.299Z,12.73
2023-10-11T01:07:03.908Z,12.75
2023-10-11T01:09:51.857Z,12.77
2023-10-11T01:12:40.891Z,12.82
2023-10-11T01:15:27.023Z,12.84
2023-10-11T01:18:14.778Z,12.83
2023-10-11T01:21:04.666Z,12.87
2023-10-11T01:23:51.361Z,12.91
2023-10-11T01:26:38.170Z,12.92
2023-10-11T01:29:25.092Z,12.94
2023-10-11T01:32:11.406Z,12.94
2023-10-11T01:34:58.070Z,12.92
2023-10-11T01:37:45.179Z,12.88
2023-10-11T01:40:34.400Z,12.93
2023-10-11T01:43:20.599Z,12.95
2023-10-11T01:46:07.192Z,12.95
2023-10-11T01:48:58.340Z,12.97
2023-10-11T01:51:49.961Z,12.94
2023-10-11T01:54:36.404Z,12.96
2023-10-11T01:57:26.558Z,13.03
2023-10-11T02:00:17.847Z,13.09
2023-10-11T02:03:05.450Z,13.13
2023-10-11T02:05:52.886Z,13.14
2023-10-11T02:08:40.334Z,13.18
2023-10-11T02:11:26.994Z,13.17
2023-10-11T02:14:15.234Z,13.18
2023-10-11T02:17:01.069Z,13.21
2023-10-11T02:19:47.321Z,13.17
2023-10-11T02:22:33.746Z,13.16
2023-10-11T02:25:27.480Z,13.11
2023-10-11T02:28:16.040Z,13.12
2023-10-11T02:31:02.510Z,13.09
2023-10-11T02:33:52.953Z,13.03
2023-10-11T02:36:44.436Z,12.98
2023-10-11T02:39:34.253Z,12.90
2023-10-11T02:42:21.844Z,12.82
2023-10-11T02:45:08.659Z,12.81
2023-10-11T02:48:00.941Z,12.85
2023-10-11T02:50:49.281Z,12.91
2023-10-11T02:53:37.491Z,12.89
2023-10-11T02:56:25.459Z,12.93
2023-10-11T02:59:12.919Z,12.91
2023-10-11T03:02:02.669Z,12.92
2023-10-11T03:04:51.135Z,12.93
2023-10-11T03:07:38.064Z,12.90
2023-10-11T03:10:25.564Z,12.88
2023-10-11T03:13:24.951Z,12.93
2023-10-11T03:16:18.331Z,12.90
2023-10-11T03:19:06.472Z,12.96
2023-10-11T03:21:55.517Z,12.99
2023-10-11T03:24:42.100Z,12.95
2023-10-11T03:27:37.587Z,12.94
2023-10-11T03:30:25.738Z,13.03
2023-10-11T03:33:13.084Z,13.02
2023-10-11T03:36:06.619Z,13.05
2023-10-11T03:38:53.303Z,13.03
2023-10-11T03:41:47.109Z,13.07
2023-10-11T03:44:37.617Z,13.13
2023-10-11T03:47:25.556Z,13.17
2023-10-11T03:50:13.426Z,13.18
2023-10-11T03:53:09.106Z,13.15
2023-10-11T03:55:55.277Z,13.13
2023-10-11T03:58:41.461Z,13.12
2023-10-11T04:01:37.835Z,13.12
2023-10-11T04:04:24.179Z,13.14
2023-10-11T04:07:13.769Z,13.23
2023-10-11T04:10:06.211Z,13.29
2023-10-11T04:12:54.998Z,13.31
2023-10-11T04:15:41.979Z,13.33
2023-10-11T04:18:38.510Z,13.40
2023-10-11T04:21:24.987Z,13.44
2023-10-11T04:24:11.868Z,13.44
2023-10-11T04:27:18.330Z,13.45
2023-10-11T04:30:19.577Z,13.45
2023-10-11T04:33:11.705Z,13.48
2023-10-11T04:35:59.592Z,13.51
2023-10-11T04:38:49.446Z,13.55
2023-10-11T04:41:39.972Z,13.58
2023-10-11T04:44:36.125Z,13.63
2023-10-11T04:47:24.924Z,13.68
2023-10-11T04:50:12.941Z,13.70
2023-10-11T04:52:59.712Z,13.74
2023-10-11T04:56:12.136Z,13.80
2023-10-11T04:59:07.697Z,13.81
2023-10-11T05:01:53.920Z,13.83
2023-10-11T05:04:47.615Z,13.85
2023-10-11T05:07:34.640Z,13.84
2023-10-11T05:10:30.613Z,13.83
2023-10-11T05:13:21.136Z,13.85
2023-10-11T05:16:09.026Z,13.88
2023-10-11T05:18:55.289Z,13.87
2023-10-11T05:21:44.310Z,13.85
2023-10-11T05:24:45.621Z,13.82
2023-10-11T05:27:37.116Z,13.79
2023-10-11T05:30:26.149Z,13.73
2023-10-11T05:33:32.130Z,13.71
2023-10-11T05:36:38.231Z,13.69
2023-10-11T05:39:42.782Z,13.70
2023-10-11T05:42:48.552Z,13.72
2023-10-11T05:45:54.799Z,13.72
2023-10-11T05:49:00.222Z,13.72
2023-10-11T05:51:46.590Z,13.71
2023-10-11T05:54:36.104Z,13.71
2023-10-11T05:57:25.082Z,13.76
2023-10-11T06:00:23.896Z,13.77
2023-10-11T06:03:12.820Z,13.74
2023-10-11T06:06:12.774Z,13.74
2023-10-11T06:08:59.509Z,13.74
2023-10-11T06:11:50.072Z,13.72
2023-10-11T06:14:40.395Z,13.74
2023-10-11T06:17:56.519Z,13.77
2023-10-11T06:21:02.632Z,13.77
2023-10-11T06:23:50.130Z,13.82
2023-10-11T06:26:36.350Z,13.82
2023-10-11T06:29:26.609Z,13.84
2023-10-11T06:35:07.137Z,13.94
2023-10-11T06:37:54.180Z,13.97
2023-10-11T06:40:41.056Z,14.04
2023-10-11T06:43:28.179Z,14.07
2023-10-11T06:46:14.357Z,14.09
2023-10-11T06:49:01.476Z,14.14
2023-10-11T06:51:47.523Z,14.18
2023-10-11T06:54:34.387Z,14.18
2023-10-11T06:57:23.409Z,14.22
2023-10-11T07:00:30.098Z,14.24
2023-10-11T07:03:26.886Z,14.23
2023-10-11T07:06:13.924Z,14.24
2023-10-11T07:09:00.829Z,14.25
2023-10-11T07:12:12.908Z,14.28
2023-10-11T07:15:01.483Z,14.34
2023-10-11T07:17:48.062Z,14.38
2023-10-11T07:20:50.246Z,14.37
2023-10-11T07:23:51.722Z,14.36
2023-10-11T07:26:41.703Z,14.38
2023-10-11T07:29:28.568Z,14.39
2023-10-11T07:32:15.556Z,14.42
2023-10-11T07:35:07.223Z,14.42
2023-10-11T07:37:53.585Z,14.47
2023-10-11T07:40:47.284Z,14.48
2023-10-11T07:43:34.172Z,14.51
2023-10-11T07:46:21.416Z,14.57
2023-10-11T07:49:10.255Z,14.61
2023-10-11T07:52:02.539Z,14.64
2023-10-11T07:54:48.884Z,14.69
2023-10-11T07:57:40.860Z,14.75
2023-10-11T08:00:38.640Z,14.83
2023-10-11T08:03:26.130Z,14.87
2023-10-11T08:06:15.829Z,14.93
2023-10-11T08:09:02.843Z,15.00
2023-10-11T08:11:58.435Z,15.07
2023-10-11T08:14:49.088Z,15.10
2023-10-11T08:17:36.456Z,15.17
2023-10-11T08:20:29.840Z,15.22
2023-10-11T08:23:29.502Z,15.27
2023-10-11T08:26:16.256Z,15.30
2023-10-11T08:29:16.304Z,15.39
2023-10-11T08:32:07.722Z,15.45
2023-10-11T08:34:55.914Z,15.51
2023-10-11T08:37:42.981Z,15.57
2023-10-11T08:40:36.489Z,15.69
2023-10-11T08:43:23.543Z,15.77
2023-10-11T08:46:14.101Z,15.88
2023-10-11T08:49:02.277Z,15.95
2023-10-11T08:51:51.726Z,16.05
2023-10-11T08:54:39.743Z,16.13
2023-10-11T08:57:28.383Z,16.20
2023-10-11T09:00:30.854Z,16.25
2023-10-11T09:03:21.715Z,16.31
2023-10-11T09:06:25.549Z,16.38
2023-10-11T09:09:34.489Z,16.42
2023-10-11T09:12:28.162Z,16.49
2023-10-11T09:15:16.182Z,16.52
2023-10-11T09:18:15.080Z,16.58
2023-10-11T09:21:11.268Z,16.65
2023-10-11T09:24:02.387Z,16.71
2023-10-11T09:27:10.623Z,16.76
2023-10-11T09:29:59.161Z,16.87
2023-10-11T09:32:50.097Z,16.93
2023-10-11T09:35:36.580Z,17.00
2023-10-11T09:38:23.627Z,17.09
2023-10-11T09:41:09.945Z,17.17
2023-10-11T09:44:00.946Z,17.23
2023-10-11T09:46:49.350Z,17.32
2023-10-11T09:49:45.615Z,17.38
2023-10-11T09:52:34.919Z,17.44
2023-10-11T09:55:32.944Z,17.54
2023-10-11T09:58:31.379Z,17.63
2023-10-11T10:01:40.408Z,17.75
2023-10-11T10:04:52.133Z,17.92
2023-10-11T10:07:41.277Z,18.04
2023-10-11T10:10:53.957Z,18.18
2023-10-11T10:14:03.196Z,18.25
2023-10-11T10:17:15.484Z,18.40
2023-10-11T10:20:36.741Z,18.46
2023-10-11T10:23:27.130Z,18.50
2023-10-11T10:26:14.683Z,18.59
2023-10-11T10:29:01.900Z,18.67
2023-10-11T10:32:06.525Z,18.76
2023-10-11T10:35:20.544Z,18.86
2023-10-11T10:38:11.392Z,19.00
2023-10-11T10:41:26.910Z,19.17
2023-10-11T10:44:13.907Z,19.39
2023-10-11T10:47:01.284Z,19.53
2023-10-11T10:49:48.658Z,19.68
2023-10-11T10:52:36.167Z,19.79
2023-10-11T10:55:22.790Z,19.93
2023-10-11T10:58:17.582Z,20.17
2023-10-11T11:01:05.721Z,20.33
2023-10-11T11:03:59.146Z,20.37
2023-10-11T11:06:47.421Z,20.58
2023-10-11T11:09:33.664Z,20.81
2023-10-11T11:12:20.065Z,20.87
2023-10-11T11:15:10.963Z,20.87
2023-10-11T11:17:57.198Z,20.95
2023-10-11T11:20:52.930Z,21.10
2023-10-11T11:23:39.154Z,21.16
2023-10-11T11:26:33.564Z,21.20
2023-10-11T11:29:32.554Z,21.48
2023-10-11T11:32:38.854Z,21.48
2023-10-11T11:35:32.654Z,21.49
2023-10-11T11:38:25.622Z,21.63
2023-10-11T11:41:28.024Z,21.91
2023-10-11T11:44:24.701Z,22.22
2023-10-11T11:47:10.853Z,22.35
2023-10-11T11:50:01.587Z,22.34
2023-10-11T11:52:48.126Z,22.51
2023-10-11T11:55:40.940Z,22.52
2023-10-11T11:58:27.742Z,22.77
2023-10-11T12:01:19.166Z,22.91
2023-10-11T12:04:07.425Z,22.55
2023-10-11T12:06:53.917Z,22.51
2023-10-11T12:09:59.449Z,22.79
2023-10-11T12:12:46.747Z,22.92
2023-10-11T12:15:34.443Z,22.66
2023-10-11T12:18:21.282Z,22.50
2023-10-11T12:21:16.815Z,22.63
2023-10-11T12:24:30.411Z,22.67
2023-10-11T12:27:17.741Z,22.79
2023-10-11T12:30:11.342Z,22.81
2023-10-11T12:32:58.873Z,22.70
2023-10-11T12:35:45.765Z,22.69
2023-10-11T12:38:37.368Z,22.66
2023-10-11T12:41:23.673Z,22.59
2023-10-11T12:44:13.153Z,22.58
2023-10-11T12:47:02.340Z,22.75
2023-10-11T12:49:48.642Z,23.04
2023-10-11T12:52:39.474Z,23.22
2023-10-11T12:55:26.681Z,23.39
2023-10-11T12:58:15.130Z,23.19
2023-10-11T13:01:06.776Z,23.01
2023-10-11T13:04:07.911Z,22.95
2023-10-11T13:06:53.938Z,23.07
2023-10-11T13:09:42.062Z,23.03
2023-10-11T13:12:33.356Z,22.89
2023-10-11T13:15:26.025Z,22.99
2023-10-11T13:18:12.317Z,23.13
2023-10-11T13:21:01.243Z,22.99
2023-10-11T13:23:48.504Z,22.98
2023-10-11T13:26:36.411Z,23.04
2023-10-11T13:29:26.572Z,23.24
2023-10-11T13:32:14.789Z,23.25
2023-10-11T13:35:01.277Z,23.08
2023-10-11T13:37:48.081Z,22.93
2023-10-11T13:40:33.904Z,22.73
2023-10-11T13:43:23.145Z,22.54
2023-10-11T13:46:12.160Z,21.88
2023-10-11T13:49:10.993Z,21.56
2023-10-11T13:52:02.604Z,21.32
2023-10-11T13:54:54.426Z,21.25
2023-10-11T13:57:42.142Z,21.14
2023-10-11T14:00:41.133Z,21.15
2023-10-11T14:03:56.069Z,21.19
2023-10-11T14:07:12.954Z,21.10
2023-10-11T14:09:59.652Z,21.02
2023-10-11T14:12:46.745Z,21.00
2023-10-11T14:15:34.158Z,20.99
2023-10-11T14:18:22.211Z,20.89
2023-10-11T14:21:14.104Z,20.69
2023-10-11T14:24:01.374Z,20.49
2023-10-11T14:26:48.735Z,20.40
2023-10-11T14:29:35.758Z,20.34
2023-10-11T14:32:21.522Z,20.28
2023-10-11T14:35:10.914Z,20.24
2023-10-11T14:37:57.103Z,20.14
2023-10-11T14:40:48.290Z,20.13
2023-10-11T14:43:35.554Z,20.10
2023-10-11T14:46:23.641Z,20.08
2023-10-11T14:49:11.936Z,20.04
2023-10-11T14:51:58.814Z,19.99
2023-10-11T14:54:46.765Z,19.94
2023-10-11T14:57:33.764Z,19.94
2023-10-11T15:00:23.966Z,19.89
2023-10-11T15:03:14.684Z,19.84
2023-10-11T15:06:05.847Z,19.77
2023-10-11T15:08:52.765Z,19.72
2023-10-11T15:11:38.997Z,19.65
2023-10-11T15:14:26.007Z,19.59
2023-10-11T15:17:12.392Z,19.50
2023-10-11T15:19:58.905Z,19.39
2023-10-11T15:22:53.237Z,19.32
2023-10-11T15:25:42.216Z,19.26
2023-10-11T15:28:32.041Z,19.16
2023-10-11T15:31:19.708Z,19.06
2023-10-11T15:34:15.720Z,18.96
2023-10-11T15:37:03.653Z,18.88
2023-10-11T15:39:50.648Z,18.79
2023-10-11T15:42:37.536Z,18.72
2023-10-11T15:45:23.461Z,18.68
2023-10-11T15:48:09.959Z,18.64
2023-10-11T15:51:17.084Z,18.55
2023-10-11T15:54:08.335Z,18.48
2023-10-11T15:56:55.569Z,18.42
2023-10-11T15:59:42.101Z,18.37
2023-10-11T16:02:28.119Z,18.32
2023-10-11T16:05:18.250Z,18.28
2023-10-11T16:08:06.578Z,18.26
2023-10-11T16:11:03.640Z,18.18
2023-10-11T16:13:50.475Z,18.09
2023-10-11T16:16:37.191Z,18.06
2023-10-11T16:19:23.329Z,18.03
2023-10-11T16:22:10.019Z,17.97
2023-10-11T16:24:56.323Z,17.90
2023-10-11T16:27:44.284Z,17.83
2023-10-11T16:30:30.755Z,17.81
2023-10-11T16:33:17.239Z,17.81
2023-10-11T16:36:08.694Z,17.76
2023-10-11T16:38:57.648Z,17.74
2023-10-11T16:41:43.580Z,17.65
2023-10-11T16:44:32.725Z,17.60
2023-10-11T16:47:23.175Z,17.51
2023-10-11T16:50:12.792Z,17.49
2023-10-11T16:52:59.692Z,17.48
2023-10-11T16:55:46.359Z,17.48
2023-10-11T16:58:32.877Z,17.40
2023-10-11T17:01:18.881Z,17.36
2023-10-11T17:04:12.172Z,17.36
2023-10-11T17:06:58.929Z,17.29
2023-10-11T17:09:50.121Z,17.27
2023-10-11T17:12:43.226Z,17.29
2023-10-11T17:15:29.443Z,17.24
2023-10-11T17:18:16.999Z,17.25
2023-10-11T17:21:04.942Z,17.25
2023-10-11T17:23:51.306Z,17.24
2023-10-11T17:26:37.436Z,17.23
2023-10-11T17:29:24.409Z,17.24
2023-10-11T17:32:10.370Z,17.22
2023-10-11T17:34:59.938Z,17.18
2023-10-11T17:37:48.026Z,17.15
2023-10-11T17:40:39.215Z,17.12
2023-10-11T17:43:27.640Z,17.07
2023-10-11T17:46:15.100Z,17.06
2023-10-11T17:49:01.402Z,17.05
2023-10-11T17:51:48.242Z,17.04
2023-10-11T17:54:34.692Z,17.02
2023-10-11T17:57:21.921Z,17.03
2023-10-11T18:00:19.467Z,17.01
2023-10-11T18:03:18.944Z,17.02
2023-10-11T18:06:10.752Z,16.96
2023-10-11T18:08:57.117Z,16.91
2023-10-11T18:11:44.293Z,16.91
2023-10-11T18:14:30.830Z,16.88
2023-10-11T18:17:16.815Z,16.90
2023-10-11T18:20:03.405Z,16.88
2023-10-11T18:22:51.038Z,16.89
2023-10-11T18:25:38.937Z,16.88
2023-10-11T18:28:25.024Z,16.89
2023-10-11T18:31:12.960Z,16.89
2023-10-11T18:33:58.886Z,16.87
2023-10-11T18:36:46.367Z,16.86
2023-10-11T18:39:35.896Z,16.81
2023-10-11T18:42:22.518Z,16.82
2023-10-11T18:45:12.897Z,16.76
2023-10-11T18:48:02.098Z,16.75
2023-10-11T18:50:49.130Z,16.77
2023-10-11T18:53:36.478Z,16.76
2023-10-11T18:56:23.371Z,16.77
2023-10-11T18:59:10.265Z,16.75
2023-10-11T19:02:00.908Z,16.75
2023-10-11T19:04:48.513Z,16.71
2023-10-11T19:07:37.247Z,16.71
2023-10-11T19:10:33.558Z,16.73
2023-10-11T19:13:29.325Z,16.68
2023-10-11T19:16:25.154Z,16.64
2023-10-11T19:19:13.539Z,16.65
2023-10-11T19:22:01.064Z,16.64
2023-10-11T19:24:47.465Z,16.65
2023-10-11T19:31:05.036Z,16.61
2023-10-11T19:33:53.608Z,16.57
2023-10-11T19:36:46.457Z,16.54
2023-10-11T19:39:32.761Z,16.52
2023-10-11T19:42:20.962Z,16.49
2023-10-11T19:45:17.220Z,16.46
2023-10-11T19:48:06.843Z,16.44
2023-10-11T19:50:53.425Z,16.39
2023-10-11T19:53:40.288Z,16.37
2023-10-11T19:56:26.783Z,16.37
2023-10-11T19:59:13.790Z,16.39
2023-10-11T20:02:00.859Z,16.37
2023-10-11T20:04:48.623Z,16.38
2023-10-11T20:07:35.820Z,16.35
2023-10-11T20:10:23.121Z,16.30
2023-10-11T20:13:09.237Z,16.26
2023-10-11T20:15:55.992Z,16.27
2023-10-11T20:18:45.566Z,16.29
2023-10-11T20:21:32.844Z,16.25
2023-10-11T20:24:21.802Z,16.24
2023-10-11T20:27:08.758Z,16.18
2023-10-11T20:29:54.766Z,16.18
2023-10-11T20:32:42.350Z,16.18
2023-10-11T20:35:29.612Z,16.18
2023-10-11T20:38:18.869Z,16.14
2023-10-11T20:41:09.446Z,16.14
2023-10-11T20:43:56.591Z,16.10
2023-10-11T20:46:44.008Z,16.10
2023-10-11T20:49:30.888Z,16.08
2023-10-11T20:52:17.283Z,16.06
2023-10-11T20:55:05.231Z,16.04
2023-10-11T20:58:15.255Z,16.07
2023-10-11T21:01:07.262Z,16.02
2023-10-11T21:03:56.472Z,16.01
2023-10-11T21:06:46.326Z,15.99
2023-10-11T21:09:32.810Z,16.00
2023-10-11T21:16:00.566Z,16.06
2023-10-11T21:18:47.685Z,16.07
2023-10-11T21:21:34.065Z,16.08
2023-10-11T21:24:20.676Z,16.08
2023-10-11T21:27:07.095Z,16.05
2023-10-11T21:29:54.505Z,16.03
2023-10-11T21:32:41.128Z,16.04
2023-10-11T21:35:27.742Z,16.03
2023-10-11T21:38:15.718Z,15.99
2023-10-11T21:41:03.067Z,16.01
2023-10-11T21:43:50.337Z,15.98
2023-10-11T21:46:39.633Z,16.03
2023-10-11T21:49:26.748Z,16.03
2023-10-11T21:52:12.934Z,16.00
2023-10-11T21:54:58.723Z,16.02
2023-10-11T21:57:48.900Z,16.04
2023-10-11T22:00:48.208Z,16.04
2023-10-11T22:03:35.339Z,16.04
2023-10-11T22:06:22.066Z,16.01
2023-10-11T22:09:08.812Z,15.98
2023-10-11T22:11:55.201Z,15.99
2023-10-11T22:14:42.260Z,15.99
2023-10-11T22:17:28.593Z,15.99
2023-10-11T22:20:19.289Z,16.00
2023-10-11T22:23:06.793Z,16.00
2023-10-11T22:25:53.889Z,16.01
2023-10-11T22:28:39.955Z,16.02
2023-10-11T22:31:26.668Z,16.01
2023-10-11T22:34:13.170Z,16.00
2023-10-11T22:37:01.541Z,16.01
2023-10-11T22:39:48.317Z,16.01
2023-10-11T22:42:35.325Z,16.03
2023-10-11T22:45:21.993Z,16.04
2023-10-11T22:48:09.149Z,16.08
2023-10-11T22:50:55.430Z,16.04
2023-10-11T22:53:59.806Z,16.03
2023-10-11T22:56:47.400Z,16.06
2023-10-11T22:59:34.467Z,16.09
2023-10-11T23:02:21.359Z,16.12
2023-10-11T23:05:08.868Z,16.14
2023-10-11T23:07:56.816Z,16.17
2023-10-11T23:10:47.186Z,16.22
2023-10-11T23:13:39.533Z,16.29
2023-10-11T23:16:29.290Z,16.33
2023-10-11T23:19:23.588Z,16.31
2023-10-11T23:22:22.671Z,16.33
2023-10-11T23:25:10.140Z,16.33
2023-10-11T23:28:05.841Z,16.35
2023-10-11T23:30:53.835Z,16.38
2023-10-11T23:33:50.926Z,16.39
2023-10-11T23:36:42.641Z,16.39
2023-10-11T23:39:36.163Z,16.39
2023-10-11T23:42:24.041Z,16.37
2023-10-11T23:45:17.420Z,16.35
2023-10-11T23:48:10.500Z,16.35
2023-10-11T23:51:05.391Z,16.37
2023-10-11T23:53:51.378Z,16.35
2023-10-11T23:56:48.329Z,16.37
2023-10-11T23:59:46.343Z,16.38
